sensor_id;sensor_type;location;lat;lon;timestamp;P1;durP1;ratioP1;P2;durP2;ratioP2
69573;SDS011;62840;52.366;5.980;2023-02-28T00:01:54;3.58;;;0.90;;
69573;SDS011;62840;52.366;5.980;2023-02-28T00:04:20;4.30;;;1.10;;
69573;SDS011;62840;52.366;5.980;2023-02-28T00:06:45;3.22;;;1.00;;
69573;SDS011;62840;52.366;5.980;2023-02-28T00:09:11;3.20;;;1.10;;
69573;SDS011;62840;52.366;5.980;2023-02-28T00:11:37;3.08;;;1.00;;
69573;SDS011;62840;52.366;5.980;2023-02-28T00:14:03;3.23;;;1.13;;
69573;SDS011;62840;52.366;5.980;2023-02-28T00:16:31;2.70;;;1.02;;
69573;SDS011;62840;52.366;5.980;2023-02-28T00:18:57;3.50;;;0.95;;
69573;SDS011;62840;52.366;5.980;2023-02-28T00:21:23;2.27;;;0.77;;
69573;SDS011;62840;52.366;5.980;2023-02-28T00:23:48;3.13;;;0.85;;
69573;SDS011;62840;52.366;5.980;2023-02-28T00:26:14;2.30;;;0.80;;
69573;SDS011;62840;52.366;5.980;2023-02-28T00:28:40;3.05;;;1.10;;
69573;SDS011;62840;52.366;5.980;2023-02-28T00:31:06;2.70;;;0.90;;
69573;SDS011;62840;52.366;5.980;2023-02-28T00:33:34;4.13;;;0.90;;
69573;SDS011;62840;52.366;5.980;2023-02-28T00:36:01;4.15;;;1.15;;
69573;SDS011;62840;52.366;5.980;2023-02-28T00:38:30;3.13;;;0.90;;
69573;SDS011;62840;52.366;5.980;2023-02-28T00:40:55;4.77;;;1.20;;
69573;SDS011;62840;52.366;5.980;2023-02-28T00:43:21;4.18;;;0.85;;
69573;SDS011;62840;52.366;5.980;2023-02-28T00:45:47;4.90;;;1.43;;
69573;SDS011;62840;52.366;5.980;2023-02-28T00:48:12;4.03;;;1.10;;
69573;SDS011;62840;52.366;5.980;2023-02-28T00:50:41;3.70;;;1.00;;
69573;SDS011;62840;52.366;5.980;2023-02-28T00:53:06;4.15;;;0.82;;
69573;SDS011;62840;52.366;5.980;2023-02-28T00:55:32;3.83;;;0.88;;
69573;SDS011;62840;52.366;5.980;2023-02-28T00:57:58;2.93;;;0.87;;
69573;SDS011;62840;52.366;5.980;2023-02-28T01:00:24;3.83;;;1.30;;
69573;SDS011;62840;52.366;5.980;2023-02-28T01:02:49;4.27;;;1.50;;
69573;SDS011;62840;52.366;5.980;2023-02-28T01:05:15;2.95;;;1.02;;
69573;SDS011;62840;52.366;5.980;2023-02-28T01:07:43;3.50;;;1.40;;
69573;SDS011;62840;52.366;5.980;2023-02-28T01:10:10;3.55;;;1.10;;
69573;SDS011;62840;52.366;5.980;2023-02-28T01:12:36;4.32;;;1.27;;
69573;SDS011;62840;52.366;5.980;2023-02-28T01:15:02;3.42;;;1.00;;
69573;SDS011;62840;52.366;5.980;2023-02-28T01:17:29;3.20;;;1.30;;
69573;SDS011;62840;52.366;5.980;2023-02-28T01:19:55;4.20;;;1.00;;
69573;SDS011;62840;52.366;5.980;2023-02-28T01:22:21;3.30;;;1.10;;
69573;SDS011;62840;52.366;5.980;2023-02-28T01:24:49;3.20;;;1.20;;
69573;SDS011;62840;52.366;5.980;2023-02-28T01:27:15;4.72;;;1.17;;
69573;SDS011;62840;52.366;5.980;2023-02-28T01:29:41;3.53;;;1.20;;
69573;SDS011;62840;52.366;5.980;2023-02-28T01:32:07;3.70;;;1.00;;
69573;SDS011;62840;52.366;5.980;2023-02-28T01:34:32;7.40;;;1.25;;
69573;SDS011;62840;52.366;5.980;2023-02-28T01:36:58;3.90;;;1.27;;
69573;SDS011;62840;52.366;5.980;2023-02-28T01:39:24;7.20;;;1.60;;
69573;SDS011;62840;52.366;5.980;2023-02-28T01:41:52;3.30;;;1.10;;
69573;SDS011;62840;52.366;5.980;2023-02-28T01:47:21;3.55;;;1.10;;
69573;SDS011;62840;52.366;5.980;2023-02-28T01:49:52;5.18;;;1.23;;
69573;SDS011;62840;52.366;5.980;2023-02-28T01:52:18;3.50;;;1.37;;
69573;SDS011;62840;52.366;5.980;2023-02-28T01:54:45;3.42;;;1.15;;
69573;SDS011;62840;52.366;5.980;2023-02-28T01:57:20;2.88;;;1.27;;
69573;SDS011;62840;52.366;5.980;2023-02-28T01:59:51;3.28;;;1.50;;
69573;SDS011;62840;52.366;5.980;2023-02-28T02:02:21;5.03;;;1.30;;
69573;SDS011;62840;52.366;5.980;2023-02-28T02:04:50;5.60;;;1.30;;
69573;SDS011;62840;52.366;5.980;2023-02-28T02:07:21;3.35;;;1.10;;
69573;SDS011;62840;52.366;5.980;2023-02-28T02:09:50;5.85;;;1.40;;
69573;SDS011;62840;52.366;5.980;2023-02-28T02:12:25;2.90;;;1.10;;
69573;SDS011;62840;52.366;5.980;2023-02-28T02:15:12;4.53;;;1.00;;
69573;SDS011;62840;52.366;5.980;2023-02-28T02:17:47;3.43;;;1.20;;
69573;SDS011;62840;52.366;5.980;2023-02-28T02:20:28;3.25;;;0.90;;
69573;SDS011;62840;52.366;5.980;2023-02-28T02:26:50;3.40;;;1.00;;
69573;SDS011;62840;52.366;5.980;2023-02-28T02:29:42;2.50;;;0.98;;
69573;SDS011;62840;52.366;5.980;2023-02-28T02:32:48;3.43;;;1.30;;
69573;SDS011;62840;52.366;5.980;2023-02-28T02:35:34;3.33;;;1.00;;
69573;SDS011;62840;52.366;5.980;2023-02-28T02:38:16;3.00;;;1.13;;
69573;SDS011;62840;52.366;5.980;2023-02-28T02:40:58;3.50;;;1.20;;
69573;SDS011;62840;52.366;5.980;2023-02-28T02:43:34;3.17;;;1.25;;
69573;SDS011;62840;52.366;5.980;2023-02-28T02:46:10;4.50;;;1.80;;
69573;SDS011;62840;52.366;5.980;2023-02-28T02:48:44;5.68;;;1.52;;
69573;SDS011;62840;52.366;5.980;2023-02-28T02:51:16;4.15;;;1.30;;
69573;SDS011;62840;52.366;5.980;2023-02-28T02:53:47;4.55;;;1.35;;
69573;SDS011;62840;52.366;5.980;2023-02-28T02:56:20;5.40;;;1.50;;
69573;SDS011;62840;52.366;5.980;2023-02-28T02:58:52;3.57;;;1.60;;
69573;SDS011;62840;52.366;5.980;2023-02-28T03:01:27;3.55;;;1.30;;
69573;SDS011;62840;52.366;5.980;2023-02-28T03:03:57;4.00;;;1.20;;
69573;SDS011;62840;52.366;5.980;2023-02-28T03:06:29;4.32;;;1.52;;
69573;SDS011;62840;52.366;5.980;2023-02-28T03:08:55;5.47;;;1.48;;
69573;SDS011;62840;52.366;5.980;2023-02-28T03:11:21;3.93;;;1.60;;
69573;SDS011;62840;52.366;5.980;2023-02-28T03:13:50;4.30;;;1.83;;
69573;SDS011;62840;52.366;5.980;2023-02-28T03:16:49;3.00;;;0.90;;
69573;SDS011;62840;52.366;5.980;2023-02-28T03:19:33;4.00;;;1.30;;
69573;SDS011;62840;52.366;5.980;2023-02-28T03:22:27;5.13;;;1.47;;
69573;SDS011;62840;52.366;5.980;2023-02-28T03:25:12;5.07;;;1.40;;
69573;SDS011;62840;52.366;5.980;2023-02-28T03:27:51;3.75;;;1.30;;
69573;SDS011;62840;52.366;5.980;2023-02-28T03:30:29;4.15;;;1.20;;
69573;SDS011;62840;52.366;5.980;2023-02-28T03:33:08;5.10;;;1.50;;
69573;SDS011;62840;52.366;5.980;2023-02-28T03:35:41;3.63;;;1.40;;
69573;SDS011;62840;52.366;5.980;2023-02-28T03:38:17;3.10;;;1.10;;
69573;SDS011;62840;52.366;5.980;2023-02-28T03:40:50;4.53;;;1.40;;
69573;SDS011;62840;52.366;5.980;2023-02-28T03:43:26;4.75;;;1.33;;
69573;SDS011;62840;52.366;5.980;2023-02-28T03:45:58;4.32;;;1.30;;
69573;SDS011;62840;52.366;5.980;2023-02-28T03:48:31;4.97;;;1.30;;
69573;SDS011;62840;52.366;5.980;2023-02-28T03:51:06;3.60;;;1.30;;
69573;SDS011;62840;52.366;5.980;2023-02-28T03:53:42;3.70;;;1.42;;
69573;SDS011;62840;52.366;5.980;2023-02-28T03:56:16;3.70;;;1.77;;
69573;SDS011;62840;52.366;5.980;2023-02-28T03:58:47;4.00;;;1.55;;
69573;SDS011;62840;52.366;5.980;2023-02-28T04:01:23;6.70;;;1.63;;
69573;SDS011;62840;52.366;5.980;2023-02-28T04:03:57;3.97;;;1.75;;
69573;SDS011;62840;52.366;5.980;2023-02-28T04:06:23;4.70;;;1.77;;
69573;SDS011;62840;52.366;5.980;2023-02-28T04:08:52;3.63;;;1.30;;
69573;SDS011;62840;52.366;5.980;2023-02-28T04:11:22;4.25;;;1.42;;
69573;SDS011;62840;52.366;5.980;2023-02-28T04:13:57;3.67;;;1.50;;
69573;SDS011;62840;52.366;5.980;2023-02-28T04:16:23;4.40;;;1.30;;
69573;SDS011;62840;52.366;5.980;2023-02-28T04:18:49;3.83;;;1.40;;
69573;SDS011;62840;52.366;5.980;2023-02-28T04:21:14;3.80;;;1.57;;
69573;SDS011;62840;52.366;5.980;2023-02-28T04:23:40;5.45;;;2.10;;
69573;SDS011;62840;52.366;5.980;2023-02-28T04:26:08;4.27;;;1.80;;
69573;SDS011;62840;52.366;5.980;2023-02-28T04:28:36;4.43;;;1.80;;
69573;SDS011;62840;52.366;5.980;2023-02-28T04:31:03;5.85;;;2.50;;
69573;SDS011;62840;52.366;5.980;2023-02-28T04:33:30;4.13;;;2.00;;
69573;SDS011;62840;52.366;5.980;2023-02-28T04:35:58;4.60;;;2.40;;
69573;SDS011;62840;52.366;5.980;2023-02-28T04:38:25;5.28;;;2.13;;
69573;SDS011;62840;52.366;5.980;2023-02-28T04:40:51;4.93;;;2.40;;
69573;SDS011;62840;52.366;5.980;2023-02-28T04:43:19;5.43;;;2.57;;
69573;SDS011;62840;52.366;5.980;2023-02-28T04:45:45;6.90;;;2.45;;
69573;SDS011;62840;52.366;5.980;2023-02-28T04:48:10;4.72;;;2.00;;
69573;SDS011;62840;52.366;5.980;2023-02-28T04:50:36;4.97;;;2.20;;
69573;SDS011;62840;52.366;5.980;2023-02-28T04:53:02;5.78;;;2.35;;
69573;SDS011;62840;52.366;5.980;2023-02-28T04:55:27;5.00;;;2.20;;
69573;SDS011;62840;52.366;5.980;2023-02-28T04:57:53;5.05;;;2.60;;
69573;SDS011;62840;52.366;5.980;2023-02-28T05:00:21;4.33;;;1.83;;
69573;SDS011;62840;52.366;5.980;2023-02-28T05:02:47;5.78;;;2.13;;
69573;SDS011;62840;52.366;5.980;2023-02-28T05:05:13;4.40;;;2.03;;
69573;SDS011;62840;52.366;5.980;2023-02-28T05:07:39;4.68;;;2.20;;
69573;SDS011;62840;52.366;5.980;2023-02-28T05:10:05;4.73;;;2.07;;
69573;SDS011;62840;52.366;5.980;2023-02-28T05:12:32;4.38;;;1.95;;
69573;SDS011;62840;52.366;5.980;2023-02-28T05:14:57;4.82;;;2.42;;
69573;SDS011;62840;52.366;5.980;2023-02-28T05:17:26;4.90;;;2.10;;
69573;SDS011;62840;52.366;5.980;2023-02-28T05:19:51;4.47;;;2.20;;
69573;SDS011;62840;52.366;5.980;2023-02-28T05:22:17;4.30;;;1.83;;
69573;SDS011;62840;52.366;5.980;2023-02-28T05:24:43;4.35;;;2.00;;
69573;SDS011;62840;52.366;5.980;2023-02-28T05:27:09;4.78;;;2.10;;
69573;SDS011;62840;52.366;5.980;2023-02-28T05:29:35;5.87;;;2.00;;
69573;SDS011;62840;52.366;5.980;2023-02-28T05:32:01;5.47;;;1.90;;
69573;SDS011;62840;52.366;5.980;2023-02-28T05:34:29;4.43;;;1.90;;
69573;SDS011;62840;52.366;5.980;2023-02-28T05:36:55;4.53;;;1.60;;
69573;SDS011;62840;52.366;5.980;2023-02-28T05:39:21;4.25;;;1.70;;
69573;SDS011;62840;52.366;5.980;2023-02-28T05:41:46;4.67;;;1.90;;
69573;SDS011;62840;52.366;5.980;2023-02-28T05:44:12;4.75;;;1.80;;
69573;SDS011;62840;52.366;5.980;2023-02-28T05:46:38;4.73;;;1.97;;
69573;SDS011;62840;52.366;5.980;2023-02-28T05:49:03;4.53;;;1.73;;
69573;SDS011;62840;52.366;5.980;2023-02-28T05:51:32;5.07;;;1.87;;
69573;SDS011;62840;52.366;5.980;2023-02-28T05:54:00;3.95;;;1.70;;
69573;SDS011;62840;52.366;5.980;2023-02-28T05:56:27;4.07;;;1.70;;
69573;SDS011;62840;52.366;5.980;2023-02-28T05:58:54;4.30;;;1.87;;
69573;SDS011;62840;52.366;5.980;2023-02-28T06:01:21;4.45;;;1.77;;
69573;SDS011;62840;52.366;5.980;2023-02-28T06:03:55;4.00;;;2.10;;
69573;SDS011;62840;52.366;5.980;2023-02-28T06:06:21;4.97;;;2.37;;
69573;SDS011;62840;52.366;5.980;2023-02-28T06:08:49;5.15;;;2.03;;
69573;SDS011;62840;52.366;5.980;2023-02-28T06:11:15;4.03;;;1.95;;
69573;SDS011;62840;52.366;5.980;2023-02-28T06:13:40;4.27;;;1.50;;
69573;SDS011;62840;52.366;5.980;2023-02-28T06:16:07;3.50;;;1.90;;
69573;SDS011;62840;52.366;5.980;2023-02-28T06:18:35;4.70;;;1.83;;
69573;SDS011;62840;52.366;5.980;2023-02-28T06:21:01;4.25;;;1.70;;
69573;SDS011;62840;52.366;5.980;2023-02-28T06:23:26;3.50;;;1.48;;
69573;SDS011;62840;52.366;5.980;2023-02-28T06:25:55;4.10;;;1.53;;
69573;SDS011;62840;52.366;5.980;2023-02-28T06:28:21;5.07;;;2.17;;
69573;SDS011;62840;52.366;5.980;2023-02-28T06:30:46;3.72;;;2.00;;
69573;SDS011;62840;52.366;5.980;2023-02-28T06:33:12;4.10;;;2.20;;
69573;SDS011;62840;52.366;5.980;2023-02-28T06:35:38;5.33;;;2.00;;
69573;SDS011;62840;52.366;5.980;2023-02-28T06:38:04;4.13;;;1.80;;
69573;SDS011;62840;52.366;5.980;2023-02-28T06:40:29;4.60;;;1.80;;
69573;SDS011;62840;52.366;5.980;2023-02-28T06:42:58;5.57;;;2.20;;
69573;SDS011;62840;52.366;5.980;2023-02-28T06:45:23;5.70;;;2.03;;
69573;SDS011;62840;52.366;5.980;2023-02-28T06:47:49;5.43;;;2.00;;
69573;SDS011;62840;52.366;5.980;2023-02-28T06:50:15;3.90;;;1.60;;
69573;SDS011;62840;52.366;5.980;2023-02-28T06:52:40;4.73;;;1.53;;
69573;SDS011;62840;52.366;5.980;2023-02-28T06:55:07;3.90;;;1.88;;
69573;SDS011;62840;52.366;5.980;2023-02-28T06:57:34;4.68;;;1.98;;
69573;SDS011;62840;52.366;5.980;2023-02-28T07:00:05;4.27;;;1.93;;
69573;SDS011;62840;52.366;5.980;2023-02-28T07:02:34;3.58;;;1.55;;
69573;SDS011;62840;52.366;5.980;2023-02-28T07:05:01;5.82;;;2.13;;
69573;SDS011;62840;52.366;5.980;2023-02-28T07:07:27;3.85;;;1.88;;
69573;SDS011;62840;52.366;5.980;2023-02-28T07:09:52;4.20;;;1.70;;
69573;SDS011;62840;52.366;5.980;2023-02-28T07:12:18;4.88;;;1.80;;
69573;SDS011;62840;52.366;5.980;2023-02-28T07:14:44;5.70;;;2.10;;
69573;SDS011;62840;52.366;5.980;2023-02-28T07:17:12;3.70;;;1.60;;
69573;SDS011;62840;52.366;5.980;2023-02-28T07:19:38;5.43;;;1.92;;
69573;SDS011;62840;52.366;5.980;2023-02-28T07:22:04;4.37;;;1.90;;
69573;SDS011;62840;52.366;5.980;2023-02-28T07:24:30;4.72;;;1.77;;
69573;SDS011;62840;52.366;5.980;2023-02-28T07:26:56;5.53;;;2.00;;
69573;SDS011;62840;52.366;5.980;2023-02-28T07:29:22;5.03;;;2.10;;
69573;SDS011;62840;52.366;5.980;2023-02-28T07:31:48;4.47;;;1.75;;
69573;SDS011;62840;52.366;5.980;2023-02-28T07:34:16;5.95;;;2.20;;
69573;SDS011;62840;52.366;5.980;2023-02-28T07:36:42;4.80;;;2.40;;
69573;SDS011;62840;52.366;5.980;2023-02-28T07:39:07;4.33;;;1.80;;
69573;SDS011;62840;52.366;5.980;2023-02-28T07:41:33;5.30;;;2.08;;
69573;SDS011;62840;52.366;5.980;2023-02-28T07:43:59;4.33;;;2.00;;
69573;SDS011;62840;52.366;5.980;2023-02-28T07:46:25;4.00;;;2.15;;
69573;SDS011;62840;52.366;5.980;2023-02-28T07:48:51;4.72;;;2.05;;
69573;SDS011;62840;52.366;5.980;2023-02-28T07:51:20;4.07;;;2.00;;
69573;SDS011;62840;52.366;5.980;2023-02-28T07:53:47;4.10;;;1.80;;
69573;SDS011;62840;52.366;5.980;2023-02-28T07:56:13;5.13;;;1.95;;
69573;SDS011;62840;52.366;5.980;2023-02-28T07:58:39;4.40;;;1.80;;
69573;SDS011;62840;52.366;5.980;2023-02-28T08:01:05;4.32;;;2.00;;
69573;SDS011;62840;52.366;5.980;2023-02-28T08:03:32;4.07;;;1.75;;
69573;SDS011;62840;52.366;5.980;2023-02-28T08:05:58;4.13;;;1.80;;
69573;SDS011;62840;52.366;5.980;2023-02-28T08:08:27;5.10;;;1.93;;
69573;SDS011;62840;52.366;5.980;2023-02-28T08:10:53;5.47;;;2.03;;
69573;SDS011;62840;52.366;5.980;2023-02-28T08:13:18;4.57;;;1.70;;
69573;SDS011;62840;52.366;5.980;2023-02-28T08:15:44;4.57;;;1.80;;
69573;SDS011;62840;52.366;5.980;2023-02-28T08:18:10;4.40;;;1.70;;
69573;SDS011;62840;52.366;5.980;2023-02-28T08:20:35;4.95;;;2.20;;
69573;SDS011;62840;52.366;5.980;2023-02-28T08:23:01;4.13;;;2.00;;
69573;SDS011;62840;52.366;5.980;2023-02-28T08:25:29;4.60;;;2.00;;
69573;SDS011;62840;52.366;5.980;2023-02-28T08:27:55;4.78;;;1.92;;
69573;SDS011;62840;52.366;5.980;2023-02-28T08:30:21;5.37;;;1.97;;
69573;SDS011;62840;52.366;5.980;2023-02-28T08:32:47;4.72;;;1.85;;
69573;SDS011;62840;52.366;5.980;2023-02-28T08:35:13;4.68;;;2.15;;
69573;SDS011;62840;52.366;5.980;2023-02-28T08:37:38;5.18;;;2.30;;
69573;SDS011;62840;52.366;5.980;2023-02-28T08:40:05;6.18;;;2.20;;
69573;SDS011;62840;52.366;5.980;2023-02-28T08:42:36;6.00;;;2.17;;
69573;SDS011;62840;52.366;5.980;2023-02-28T08:45:02;4.65;;;2.17;;
69573;SDS011;62840;52.366;5.980;2023-02-28T08:47:29;6.40;;;2.50;;
69573;SDS011;62840;52.366;5.980;2023-02-28T08:49:54;7.05;;;2.28;;
69573;SDS011;62840;52.366;5.980;2023-02-28T08:52:20;4.70;;;2.03;;
69573;SDS011;62840;52.366;5.980;2023-02-28T08:54:46;5.57;;;2.22;;
69573;SDS011;62840;52.366;5.980;2023-02-28T08:57:12;4.57;;;2.10;;
69573;SDS011;62840;52.366;5.980;2023-02-28T08:59:40;5.10;;;2.30;;
69573;SDS011;62840;52.366;5.980;2023-02-28T09:02:07;4.35;;;2.10;;
69573;SDS011;62840;52.366;5.980;2023-02-28T09:04:34;7.67;;;2.07;;
69573;SDS011;62840;52.366;5.980;2023-02-28T09:07:00;4.25;;;2.00;;
69573;SDS011;62840;52.366;5.980;2023-02-28T09:09:25;4.30;;;2.07;;
69573;SDS011;62840;52.366;5.980;2023-02-28T09:11:51;4.00;;;1.60;;
69573;SDS011;62840;52.366;5.980;2023-02-28T09:14:17;3.97;;;1.70;;
69573;SDS011;62840;52.366;5.980;2023-02-28T09:16:45;3.80;;;1.40;;
69573;SDS011;62840;52.366;5.980;2023-02-28T09:19:11;3.75;;;1.52;;
69573;SDS011;62840;52.366;5.980;2023-02-28T09:21:37;3.25;;;1.50;;
69573;SDS011;62840;52.366;5.980;2023-02-28T09:24:03;3.40;;;1.40;;
69573;SDS011;62840;52.366;5.980;2023-02-28T09:26:29;4.03;;;1.40;;
69573;SDS011;62840;52.366;5.980;2023-02-28T09:28:55;3.13;;;1.23;;
69573;SDS011;62840;52.366;5.980;2023-02-28T09:31:22;3.55;;;1.52;;
69573;SDS011;62840;52.366;5.980;2023-02-28T09:33:54;3.13;;;1.30;;
69573;SDS011;62840;52.366;5.980;2023-02-28T09:36:21;3.50;;;1.48;;
69573;SDS011;62840;52.366;5.980;2023-02-28T09:38:49;3.50;;;1.30;;
69573;SDS011;62840;52.366;5.980;2023-02-28T09:41:16;3.03;;;1.40;;
69573;SDS011;62840;52.366;5.980;2023-02-28T09:43:46;3.97;;;1.50;;
69573;SDS011;62840;52.366;5.980;2023-02-28T09:46:25;3.65;;;1.58;;
69573;SDS011;62840;52.366;5.980;2023-02-28T09:49:00;3.50;;;1.70;;
69573;SDS011;62840;52.366;5.980;2023-02-28T09:51:37;3.60;;;1.38;;
69573;SDS011;62840;52.366;5.980;2023-02-28T09:54:15;3.13;;;1.42;;
69573;SDS011;62840;52.366;5.980;2023-02-28T09:56:45;3.55;;;1.30;;
69573;SDS011;62840;52.366;5.980;2023-02-28T09:59:17;4.68;;;1.60;;
69573;SDS011;62840;52.366;5.980;2023-02-28T10:02:02;3.33;;;1.23;;
69573;SDS011;62840;52.366;5.980;2023-02-28T10:04:49;3.65;;;1.40;;
69573;SDS011;62840;52.366;5.980;2023-02-28T10:07:27;3.95;;;1.25;;
69573;SDS011;62840;52.366;5.980;2023-02-28T10:10:20;3.15;;;1.30;;
69573;SDS011;62840;52.366;5.980;2023-02-28T10:12:53;3.70;;;1.40;;
69573;SDS011;62840;52.366;5.980;2023-02-28T10:15:24;5.07;;;1.43;;
69573;SDS011;62840;52.366;5.980;2023-02-28T10:17:56;3.40;;;1.20;;
69573;SDS011;62840;52.366;5.980;2023-02-28T10:20:29;3.35;;;1.60;;
69573;SDS011;62840;52.366;5.980;2023-02-28T10:23:02;3.60;;;1.42;;
69573;SDS011;62840;52.366;5.980;2023-02-28T10:25:38;3.25;;;1.40;;
69573;SDS011;62840;52.366;5.980;2023-02-28T10:28:08;2.90;;;1.33;;
69573;SDS011;62840;52.366;5.980;2023-02-28T10:30:38;4.00;;;1.20;;
69573;SDS011;62840;52.366;5.980;2023-02-28T10:33:12;3.40;;;1.13;;
69573;SDS011;62840;52.366;5.980;2023-02-28T10:35:49;3.17;;;1.13;;
69573;SDS011;62840;52.366;5.980;2023-02-28T10:38:16;3.78;;;1.23;;
69573;SDS011;62840;52.366;5.980;2023-02-28T10:40:45;3.90;;;1.30;;
69573;SDS011;62840;52.366;5.980;2023-02-28T10:43:21;3.13;;;1.35;;
69573;SDS011;62840;52.366;5.980;2023-02-28T10:45:58;3.17;;;1.98;;
69573;SDS011;62840;52.366;5.980;2023-02-28T10:48:30;3.58;;;1.50;;
69573;SDS011;62840;52.366;5.980;2023-02-28T10:51:02;3.50;;;1.50;;
69573;SDS011;62840;52.366;5.980;2023-02-28T10:53:31;4.20;;;1.43;;
69573;SDS011;62840;52.366;5.980;2023-02-28T10:56:03;3.72;;;1.48;;
69573;SDS011;62840;52.366;5.980;2023-02-28T10:58:32;3.97;;;1.40;;
69573;SDS011;62840;52.366;5.980;2023-02-28T11:01:14;3.10;;;1.50;;
69573;SDS011;62840;52.366;5.980;2023-02-28T11:03:42;3.30;;;1.65;;
69573;SDS011;62840;52.366;5.980;2023-02-28T11:06:12;3.03;;;1.20;;
69573;SDS011;62840;52.366;5.980;2023-02-28T11:08:43;3.40;;;1.40;;
69573;SDS011;62840;52.366;5.980;2023-02-28T11:11:12;3.58;;;1.45;;
69573;SDS011;62840;52.366;5.980;2023-02-28T11:13:39;3.25;;;1.15;;
69573;SDS011;62840;52.366;5.980;2023-02-28T11:16:06;3.80;;;1.60;;
69573;SDS011;62840;52.366;5.980;2023-02-28T11:18:36;4.37;;;1.40;;
69573;SDS011;62840;52.366;5.980;2023-02-28T11:21:07;3.30;;;1.30;;
69573;SDS011;62840;52.366;5.980;2023-02-28T11:23:43;3.63;;;1.60;;
69573;SDS011;62840;52.366;5.980;2023-02-28T11:26:10;3.67;;;1.40;;
69573;SDS011;62840;52.366;5.980;2023-02-28T11:28:36;3.53;;;1.45;;
69573;SDS011;62840;52.366;5.980;2023-02-28T11:31:06;3.97;;;1.37;;
69573;SDS011;62840;52.366;5.980;2023-02-28T11:33:43;3.17;;;1.30;;
69573;SDS011;62840;52.366;5.980;2023-02-28T11:36:14;3.22;;;1.60;;
69573;SDS011;62840;52.366;5.980;2023-02-28T11:38:44;3.83;;;1.63;;
69573;SDS011;62840;52.366;5.980;2023-02-28T11:41:18;3.50;;;1.48;;
69573;SDS011;62840;52.366;5.980;2023-02-28T11:44:09;3.50;;;1.43;;
69573;SDS011;62840;52.366;5.980;2023-02-28T11:46:56;4.25;;;1.50;;
69573;SDS011;62840;52.366;5.980;2023-02-28T11:49:30;2.95;;;1.25;;
69573;SDS011;62840;52.366;5.980;2023-02-28T11:52:10;3.88;;;1.60;;
69573;SDS011;62840;52.366;5.980;2023-02-28T11:57:48;3.43;;;1.43;;
69573;SDS011;62840;52.366;5.980;2023-02-28T12:00:40;5.47;;;1.50;;
69573;SDS011;62840;52.366;5.980;2023-02-28T12:03:28;3.45;;;1.50;;
69573;SDS011;62840;52.366;5.980;2023-02-28T12:06:15;4.90;;;1.88;;
69573;SDS011;62840;52.366;5.980;2023-02-28T12:08:57;4.30;;;1.40;;
69573;SDS011;62840;52.366;5.980;2023-02-28T12:11:42;4.00;;;1.10;;
69573;SDS011;62840;52.366;5.980;2023-02-28T12:17:45;3.30;;;1.70;;
69573;SDS011;62840;52.366;5.980;2023-02-28T12:20:25;4.78;;;1.73;;
69573;SDS011;62840;52.366;5.980;2023-02-28T12:23:08;3.72;;;1.70;;
69573;SDS011;62840;52.366;5.980;2023-02-28T12:25:59;3.70;;;1.40;;
69573;SDS011;62840;52.366;5.980;2023-02-28T12:28:38;3.65;;;1.50;;
69573;SDS011;62840;52.366;5.980;2023-02-28T12:31:14;3.47;;;1.63;;
69573;SDS011;62840;52.366;5.980;2023-02-28T12:33:47;3.55;;;1.45;;
69573;SDS011;62840;52.366;5.980;2023-02-28T12:36:18;4.63;;;1.95;;
69573;SDS011;62840;52.366;5.980;2023-02-28T12:38:47;3.83;;;1.50;;
69573;SDS011;62840;52.366;5.980;2023-02-28T12:41:22;3.83;;;1.70;;
69573;SDS011;62840;52.366;5.980;2023-02-28T12:43:57;5.35;;;1.83;;
69573;SDS011;62840;52.366;5.980;2023-02-28T12:46:33;5.03;;;1.55;;
69573;SDS011;62840;52.366;5.980;2023-02-28T12:49:08;3.25;;;1.60;;
69573;SDS011;62840;52.366;5.980;2023-02-28T12:51:41;3.90;;;1.77;;
69573;SDS011;62840;52.366;5.980;2023-02-28T12:54:12;3.70;;;1.55;;
69573;SDS011;62840;52.366;5.980;2023-02-28T12:56:53;3.60;;;1.80;;
69573;SDS011;62840;52.366;5.980;2023-02-28T12:59:32;3.80;;;1.60;;
69573;SDS011;62840;52.366;5.980;2023-02-28T13:09:02;4.13;;;1.70;;
69573;SDS011;62840;52.366;5.980;2023-02-28T13:11:38;4.57;;;1.55;;
69573;SDS011;62840;52.366;5.980;2023-02-28T13:14:18;2.92;;;1.40;;
69573;SDS011;62840;52.366;5.980;2023-02-28T13:16:56;3.97;;;1.33;;
69573;SDS011;62840;52.366;5.980;2023-02-28T13:19:27;5.17;;;1.50;;
69573;SDS011;62840;52.366;5.980;2023-02-28T13:21:57;4.15;;;1.77;;
69573;SDS011;62840;52.366;5.980;2023-02-28T13:33:20;3.40;;;1.40;;
69573;SDS011;62840;52.366;5.980;2023-02-28T13:35:50;4.40;;;1.80;;
69573;SDS011;62840;52.366;5.980;2023-02-28T13:38:47;4.20;;;1.70;;
69573;SDS011;62840;52.366;5.980;2023-02-28T13:44:13;3.80;;;1.63;;
69573;SDS011;62840;52.366;5.980;2023-02-28T13:49:48;4.13;;;1.50;;
69573;SDS011;62840;52.366;5.980;2023-02-28T13:52:17;4.10;;;1.58;;
69573;SDS011;62840;52.366;5.980;2023-02-28T13:57:56;3.45;;;1.90;;
69573;SDS011;62840;52.366;5.980;2023-02-28T14:00:57;3.57;;;1.63;;
69573;SDS011;62840;52.366;5.980;2023-02-28T14:03:58;4.50;;;2.00;;
69573;SDS011;62840;52.366;5.980;2023-02-28T14:06:50;3.55;;;1.73;;
69573;SDS011;62840;52.366;5.980;2023-02-28T14:09:21;3.40;;;1.50;;
69573;SDS011;62840;52.366;5.980;2023-02-28T14:11:52;4.00;;;1.77;;
69573;SDS011;62840;52.366;5.980;2023-02-28T14:17:21;3.95;;;1.63;;
69573;SDS011;62840;52.366;5.980;2023-02-28T14:19:47;3.60;;;1.90;;
69573;SDS011;62840;52.366;5.980;2023-02-28T14:22:18;4.78;;;1.80;;
69573;SDS011;62840;52.366;5.980;2023-02-28T14:25:17;4.40;;;1.83;;
69573;SDS011;62840;52.366;5.980;2023-02-28T14:27:58;4.25;;;1.60;;
69573;SDS011;62840;52.366;5.980;2023-02-28T14:30:51;3.88;;;2.17;;
69573;SDS011;62840;52.366;5.980;2023-02-28T14:33:37;3.83;;;1.67;;
69573;SDS011;62840;52.366;5.980;2023-02-28T14:36:23;3.97;;;1.95;;
69573;SDS011;62840;52.366;5.980;2023-02-28T14:38:59;3.73;;;1.60;;
69573;SDS011;62840;52.366;5.980;2023-02-28T14:41:32;4.32;;;1.70;;
69573;SDS011;62840;52.366;5.980;2023-02-28T14:44:01;5.82;;;2.10;;
69573;SDS011;62840;52.366;5.980;2023-02-28T14:46:40;3.83;;;1.48;;
69573;SDS011;62840;52.366;5.980;2023-02-28T14:49:12;4.57;;;1.85;;
69573;SDS011;62840;52.366;5.980;2023-02-28T14:51:43;4.13;;;1.70;;
69573;SDS011;62840;52.366;5.980;2023-02-28T14:54:14;4.57;;;1.90;;
69573;SDS011;62840;52.366;5.980;2023-02-28T14:56:48;3.60;;;1.80;;
69573;SDS011;62840;52.366;5.980;2023-02-28T14:59:28;4.07;;;2.00;;
69573;SDS011;62840;52.366;5.980;2023-02-28T15:04:55;3.58;;;2.00;;
69573;SDS011;62840;52.366;5.980;2023-02-28T15:07:23;4.32;;;1.98;;
69573;SDS011;62840;52.366;5.980;2023-02-28T15:12:43;4.20;;;1.95;;
69573;SDS011;62840;52.366;5.980;2023-02-28T15:15:17;4.50;;;2.00;;
69573;SDS011;62840;52.366;5.980;2023-02-28T15:17:46;3.85;;;2.03;;
69573;SDS011;62840;52.366;5.980;2023-02-28T15:20:21;3.95;;;1.98;;
69573;SDS011;62840;52.366;5.980;2023-02-28T15:22:50;4.18;;;1.67;;
69573;SDS011;62840;52.366;5.980;2023-02-28T15:25:24;4.47;;;1.80;;
69573;SDS011;62840;52.366;5.980;2023-02-28T15:27:52;4.33;;;2.07;;
69573;SDS011;62840;52.366;5.980;2023-02-28T15:30:21;4.07;;;1.77;;
69573;SDS011;62840;52.366;5.980;2023-02-28T15:33:01;4.10;;;2.20;;
69573;SDS011;62840;52.366;5.980;2023-02-28T15:35:43;3.55;;;1.73;;
69573;SDS011;62840;52.366;5.980;2023-02-28T15:38:13;4.45;;;1.77;;
69573;SDS011;62840;52.366;5.980;2023-02-28T15:40:46;3.83;;;1.80;;
69573;SDS011;62840;52.366;5.980;2023-02-28T15:43:17;5.03;;;1.88;;
69573;SDS011;62840;52.366;5.980;2023-02-28T15:45:49;3.85;;;1.90;;
69573;SDS011;62840;52.366;5.980;2023-02-28T15:48:20;3.70;;;1.73;;
69573;SDS011;62840;52.366;5.980;2023-02-28T15:50:50;4.60;;;1.90;;
69573;SDS011;62840;52.366;5.980;2023-02-28T15:53:20;4.03;;;1.90;;
69573;SDS011;62840;52.366;5.980;2023-02-28T15:55:57;3.72;;;1.70;;
69573;SDS011;62840;52.366;5.980;2023-02-28T15:58:27;3.97;;;1.98;;